Como, TN (38223)

11:04 AM CDT on August 28, 2015 (GMT -0500)
54 Lawn | | Change Station
CLOSE
Current Station
Personal Weather Station
Location: Paris, TN
Elevation: 499 ft
Nearby Weather Stations

Elev 499 ft 36.29 °N, 88.42 °W | Updated 15 seconds ago

Clear
Clear
81.3 °F
Feels Like 84 °F
N
2.0
Wind Variable Wind from North
Gusts 5.0 mph

Today
High -- | Low -- °F
--% Chance of Precip.
Yesterday
High -- | Low -- °F
Precip. -- in
6:21 AM 7:27 PM
Waxing Gibbous, 98% visible
Pressure 30.13 in
Visibility 10.0 miles
Clouds Clear
Heat Index 84 °F
Dew Point 67 °F
Humidity 61%
Rainfall 0.00 in
Snow Depth Not available.
UV 8 out of 12
Pollen 8.30 out of 12
Air Quality Not available.
Flu Activity Not available.
METAR KCEY 281555Z AUTO 11004KT 10SM CLR 25/17 A3013 RMK AO1
Pressure 30.13 in
Visibility 10.0 miles
Clouds Clear
Heat Index 84 °F
Dew Point 67 °F
Humidity 61%
Rainfall 0.00 in
Snow Depth Not available.
UV 8 out of 12
Pollen 8.30 out of 12
Air Quality Not available.
Flu Activity Not available.
METAR KCEY 281555Z AUTO 11004KT 10SM CLR 25/17 A3013 RMK AO1

10-Day Weather Forecast

×

Almanac

Astronomy

Aug. 28, 2015 Rise Set
Actual Time
Civil Twilight
Nautical Twilight
Astronomical Twilight
Moon
Length of Visible Light
Length of Day
Tomorrow will be .
, % of the Moon is Illuminated

Today's Extremes

State Highs State Lows

Community

WunderPhotos

Upload Photos

1,850,411 photos uploaded!

WunderBlogs® & News

Nearby

Air Quality

  Air Quality AQ Index Pollutant
Not available.

Snow Depth

Station Depth Elevation

Earthquake Activity

City Distance Mag. Time & Date
Minimum magnitude displayed is 2.5.

Coastal Water Temperatures

Place Temperature

Stations

Nearby Weather Stations

Station Location Temp. Windchill Dew Point Humidity Wind Precip. Elev Updated Type